createdAt,value
2018-02-09T00:02:20.428Z,29.93
2018-02-09T00:04:47.877Z,34.60
2018-02-09T00:07:15.329Z,30.30
2018-02-09T00:09:42.747Z,31.37
2018-02-09T00:12:10.939Z,28.00
2018-02-09T00:14:38.427Z,30.17
2018-02-09T00:17:05.869Z,28.90
2018-02-09T00:19:33.296Z,30.47
2018-02-09T00:22:01.509Z,28.77
2018-02-09T00:24:29.011Z,28.70
2018-02-09T00:26:56.532Z,27.80
2018-02-09T00:29:23.978Z,28.00
2018-02-09T00:31:51.415Z,25.63
2018-02-09T00:34:18.900Z,26.07
2018-02-09T00:36:46.463Z,27.07
2018-02-09T00:39:13.943Z,25.27
2018-02-09T00:41:41.576Z,26.67
2018-02-09T00:44:09.016Z,24.83
2018-02-09T00:46:36.496Z,25.43
2018-02-09T00:49:03.947Z,26.67
2018-02-09T00:51:31.388Z,24.20
2018-02-09T00:53:58.867Z,25.37
2018-02-09T00:56:26.342Z,25.03
2018-02-09T00:58:53.876Z,25.87
2018-02-09T01:01:21.288Z,25.33
2018-02-09T01:03:49.518Z,23.67
2018-02-09T01:06:16.978Z,24.17
2018-02-09T01:08:45.251Z,24.20
2018-02-09T01:11:12.704Z,24.90
2018-02-09T01:13:40.171Z,23.90
2018-02-09T01:16:07.612Z,25.17
2018-02-09T01:18:35.081Z,24.30
2018-02-09T01:21:02.525Z,24.20
2018-02-09T01:23:29.993Z,23.20
2018-02-09T01:25:57.482Z,23.60
2018-02-09T01:28:25.006Z,22.87
2018-02-09T01:30:52.441Z,24.13
2018-02-09T01:33:19.867Z,23.37
2018-02-09T01:35:48.087Z,23.53
2018-02-09T01:38:15.556Z,22.20
2018-02-09T01:40:43.012Z,23.17
2018-02-09T01:43:10.460Z,22.57
2018-02-09T01:45:37.924Z,22.60
2018-02-09T01:48:07.279Z,23.77
2018-02-09T01:50:35.611Z,23.27
2018-02-09T01:53:03.064Z,22.60
2018-02-09T01:55:30.496Z,23.07
2018-02-09T01:57:58.078Z,23.13
2018-02-09T02:00:25.522Z,24.27
2018-02-09T02:02:52.999Z,22.20
2018-02-09T02:05:20.556Z,22.77
2018-02-09T02:07:47.988Z,23.33
2018-02-09T02:10:15.419Z,22.93
2018-02-09T02:12:43.644Z,23.43
2018-02-09T02:15:11.088Z,23.00
2018-02-09T02:17:38.528Z,22.53
2018-02-09T02:20:06.914Z,23.93
2018-02-09T02:22:34.395Z,23.20
2018-02-09T02:25:01.852Z,23.73
2018-02-09T02:27:29.298Z,22.43
2018-02-09T02:29:56.771Z,22.60
2018-02-09T02:32:24.211Z,22.37
2018-02-09T02:34:51.648Z,21.73
2018-02-09T02:37:19.126Z,21.23
2018-02-09T02:39:46.533Z,21.90
2018-02-09T02:42:14.143Z,22.20
2018-02-09T02:44:41.555Z,22.77
2018-02-09T02:47:09.748Z,22.57
2018-02-09T02:49:37.340Z,21.17
2018-02-09T02:52:04.768Z,23.10
2018-02-09T02:54:32.270Z,22.60
2018-02-09T02:56:59.812Z,22.50
2018-02-09T02:59:27.266Z,21.50
2018-02-09T03:01:54.703Z,22.63
2018-02-09T03:04:22.189Z,22.57
2018-02-09T03:06:49.656Z,23.23
2018-02-09T03:09:17.121Z,22.33
2018-02-09T03:11:44.663Z,23.30
2018-02-09T03:14:12.096Z,23.97
2018-02-09T03:16:39.589Z,21.57
2018-02-09T03:19:07.167Z,23.37
2018-02-09T03:21:34.663Z,22.80
2018-02-09T03:24:02.100Z,22.83
2018-02-09T03:26:30.309Z,22.53
2018-02-09T03:28:57.772Z,23.33
2018-02-09T03:31:25.187Z,22.20
2018-02-09T03:33:52.636Z,22.53
2018-02-09T03:36:20.116Z,23.07
2018-02-09T03:38:48.338Z,23.40
2018-02-09T03:41:15.784Z,23.67
2018-02-09T03:43:43.212Z,22.17
2018-02-09T03:46:10.708Z,23.47
2018-02-09T03:48:38.260Z,24.63
2018-02-09T03:51:05.716Z,23.63
2018-02-09T03:53:33.180Z,22.07
2018-02-09T03:56:00.740Z,22.90
2018-02-09T03:58:28.200Z,23.43
2018-02-09T04:00:55.629Z,24.20
2018-02-09T04:03:23.216Z,22.87
2018-02-09T04:05:50.655Z,22.83
2018-02-09T04:08:18.089Z,22.83
2018-02-09T04:10:45.582Z,22.10
2018-02-09T04:13:13.008Z,23.07
2018-02-09T04:15:40.496Z,23.23
2018-02-09T04:18:07.942Z,22.93
2018-02-09T04:20:35.408Z,22.47
2018-02-09T04:23:02.866Z,22.43
2018-02-09T04:25:30.311Z,21.60
2018-02-09T04:27:57.775Z,22.47
2018-02-09T04:30:25.232Z,22.13
2018-02-09T04:32:52.700Z,22.87
2018-02-09T04:35:20.139Z,22.33
2018-02-09T04:37:47.571Z,20.77
2018-02-09T04:40:15.017Z,21.83
2018-02-09T04:42:43.239Z,22.50
2018-02-09T04:45:10.693Z,22.80
2018-02-09T04:47:38.142Z,20.83
2018-02-09T04:50:05.596Z,21.10
2018-02-09T04:52:33.044Z,22.47
2018-02-09T04:55:00.524Z,22.77
2018-02-09T04:57:27.985Z,21.63
2018-02-09T04:59:55.536Z,22.47
2018-02-09T05:02:22.988Z,21.63
2018-02-09T05:04:50.445Z,21.13
2018-02-09T05:07:17.890Z,23.00
2018-02-09T05:09:45.465Z,21.20
2018-02-09T05:12:12.879Z,21.27
2018-02-09T05:14:41.103Z,19.93
2018-02-09T05:17:08.660Z,20.33
2018-02-09T05:19:36.128Z,21.43
2018-02-09T05:22:03.571Z,21.20
2018-02-09T05:24:31.017Z,21.43
2018-02-09T05:26:58.507Z,21.53
2018-02-09T05:29:25.948Z,21.43
2018-02-09T05:31:53.398Z,21.17
2018-02-09T05:34:20.860Z,21.20
2018-02-09T05:36:48.415Z,21.73
2018-02-09T05:39:15.832Z,20.53
2018-02-09T05:41:44.047Z,21.90
2018-02-09T05:44:11.502Z,22.30
2018-02-09T05:46:38.963Z,22.07
2018-02-09T05:49:06.416Z,21.37
2018-02-09T05:51:33.892Z,20.83
2018-02-09T05:54:01.535Z,20.87
2018-02-09T05:56:29.008Z,21.77
2018-02-09T05:58:56.496Z,20.53
2018-02-09T06:01:23.940Z,21.10
2018-02-09T06:03:51.387Z,19.57
2018-02-09T06:06:18.940Z,19.27
2018-02-09T06:08:46.465Z,19.77
2018-02-09T06:11:13.978Z,20.10
2018-02-09T06:13:41.512Z,19.63
2018-02-09T06:16:08.964Z,21.10
2018-02-09T06:18:36.396Z,20.03
2018-02-09T06:21:03.888Z,19.57
2018-02-09T06:23:31.431Z,19.83
2018-02-09T06:25:58.896Z,20.97
2018-02-09T06:28:26.333Z,21.17
2018-02-09T06:30:53.776Z,20.10
2018-02-09T06:33:21.266Z,20.50
2018-02-09T06:35:48.728Z,19.80
2018-02-09T06:38:16.181Z,19.63
2018-02-09T06:40:43.732Z,18.87
2018-02-09T06:43:11.144Z,18.97
2018-02-09T06:45:39.367Z,18.63
2018-02-09T06:48:06.830Z,18.23
2018-02-09T06:50:34.297Z,15.87
2018-02-09T06:53:01.746Z,18.13
2018-02-09T06:55:29.172Z,17.77
2018-02-09T06:57:56.632Z,18.70
2018-02-09T07:00:24.071Z,17.40
2018-02-09T07:02:51.530Z,19.30
2018-02-09T07:05:18.996Z,17.50
2018-02-09T07:07:46.443Z,17.93
2018-02-09T07:10:13.917Z,15.17
2018-02-09T07:12:41.348Z,17.23
2018-02-09T07:15:08.824Z,17.07
2018-02-09T07:17:36.251Z,16.43
2018-02-09T07:20:03.739Z,16.23
2018-02-09T07:22:31.176Z,15.77
2018-02-09T07:24:58.607Z,14.67
2018-02-09T07:27:26.045Z,15.97
2018-02-09T07:29:54.264Z,15.17
2018-02-09T07:32:21.703Z,13.77
2018-02-09T07:34:49.175Z,14.00
2018-02-09T07:37:16.620Z,15.17
2018-02-09T07:39:44.056Z,14.13
2018-02-09T07:42:11.540Z,14.47
2018-02-09T07:44:38.988Z,14.00
2018-02-09T07:47:06.439Z,14.17
2018-02-09T07:49:33.869Z,14.70
2018-02-09T07:52:02.192Z,14.90
2018-02-09T07:54:29.653Z,15.07
2018-02-09T07:56:57.104Z,14.60
2018-02-09T07:59:24.593Z,14.40
2018-02-09T08:01:52.148Z,14.33
2018-02-09T08:04:19.673Z,14.23
2018-02-09T08:06:47.098Z,13.50
2018-02-09T08:09:15.407Z,13.73
2018-02-09T08:11:42.869Z,13.57
2018-02-09T08:14:10.427Z,14.60
2018-02-09T08:16:37.835Z,13.17
2018-02-09T08:19:06.074Z,13.47
2018-02-09T08:21:33.514Z,13.30
2018-02-09T08:24:01.002Z,15.03
2018-02-09T08:26:28.439Z,13.83
2018-02-09T08:28:55.888Z,14.33
2018-02-09T08:31:23.348Z,14.40
2018-02-09T08:33:50.788Z,15.30
2018-02-09T08:36:18.254Z,13.97
2018-02-09T08:38:45.725Z,15.23
2018-02-09T08:41:13.154Z,14.93
2018-02-09T08:43:40.591Z,15.00
2018-02-09T08:46:08.812Z,14.73
2018-02-09T08:48:36.243Z,14.43
2018-02-09T08:51:03.728Z,15.20
2018-02-09T08:53:31.180Z,15.43
2018-02-09T08:55:58.604Z,15.97
2018-02-09T08:58:26.048Z,15.60
2018-02-09T09:00:54.248Z,14.93
2018-02-09T09:03:21.725Z,17.27
2018-02-09T09:05:49.180Z,16.87
2018-02-09T09:08:16.615Z,17.40
2018-02-09T09:10:44.041Z,17.13
2018-02-09T09:13:11.484Z,16.27
2018-02-09T09:15:38.952Z,17.57
2018-02-09T09:18:06.472Z,17.90
2018-02-09T09:20:33.918Z,17.07
2018-02-09T09:23:01.388Z,19.20
2018-02-09T09:25:28.812Z,17.23
2018-02-09T09:27:56.254Z,18.57
2018-02-09T09:30:24.447Z,18.77
2018-02-09T09:32:51.937Z,18.00
2018-02-09T09:35:19.377Z,18.70
2018-02-09T09:37:46.876Z,19.57
2018-02-09T09:40:14.414Z,19.47
2018-02-09T09:42:41.848Z,19.37
2018-02-09T09:45:09.270Z,20.37
2018-02-09T09:47:37.493Z,20.13
2018-02-09T09:50:04.953Z,20.73
2018-02-09T09:52:32.410Z,20.30
2018-02-09T09:54:59.872Z,19.00
2018-02-09T09:57:27.425Z,20.30
2018-02-09T09:59:54.876Z,21.77
2018-02-09T10:02:34.420Z,20.30
2018-02-09T10:05:01.852Z,20.20
2018-02-09T10:07:29.340Z,19.97
2018-02-09T10:09:56.793Z,22.07
2018-02-09T10:12:24.237Z,20.30
2018-02-09T10:14:51.697Z,21.77
2018-02-09T10:17:19.196Z,21.00
2018-02-09T10:19:46.609Z,21.20
2018-02-09T10:22:14.099Z,22.80
2018-02-09T10:24:41.765Z,21.17
2018-02-09T10:27:09.300Z,21.17
2018-02-09T10:29:36.764Z,21.13
2018-02-09T10:32:04.308Z,21.90
2018-02-09T10:34:31.788Z,22.23
2018-02-09T10:36:59.378Z,22.80
2018-02-09T10:39:26.865Z,21.80
2018-02-09T10:41:54.372Z,20.93
2018-02-09T10:44:21.800Z,20.90
2018-02-09T10:46:49.260Z,20.40
2018-02-09T10:49:16.697Z,21.07
2018-02-09T10:51:44.184Z,20.77
2018-02-09T10:54:11.621Z,20.30
2018-02-09T10:56:39.058Z,21.27
2018-02-09T10:59:07.244Z,21.53
2018-02-09T11:01:36.660Z,21.53
2018-02-09T11:04:04.101Z,22.03
2018-02-09T11:06:31.528Z,21.87
2018-02-09T11:08:59.784Z,22.13
2018-02-09T11:11:27.311Z,22.50
2018-02-09T11:13:54.747Z,22.37
2018-02-09T11:16:22.190Z,21.93
2018-02-09T11:18:50.389Z,21.43
2018-02-09T11:21:17.867Z,22.57
2018-02-09T11:23:45.305Z,22.90
2018-02-09T11:26:12.766Z,22.90
2018-02-09T11:28:40.192Z,21.37
2018-02-09T11:31:08.402Z,22.43
2018-02-09T11:33:35.845Z,22.80
2018-02-09T11:36:03.414Z,22.63
2018-02-09T11:38:30.835Z,25.13
2018-02-09T11:40:59.041Z,23.83
2018-02-09T11:43:26.532Z,22.50
2018-02-09T11:45:53.960Z,24.73
2018-02-09T11:48:21.395Z,23.37
2018-02-09T11:50:48.816Z,24.83
2018-02-09T11:53:16.283Z,24.27
2018-02-09T11:55:43.716Z,24.73
2018-02-09T11:58:11.264Z,25.53
2018-02-09T12:00:38.720Z,24.00
2018-02-09T12:03:06.168Z,24.93
2018-02-09T12:05:33.616Z,24.33
2018-02-09T12:08:01.177Z,26.00
2018-02-09T12:10:28.584Z,24.83
2018-02-09T12:12:56.017Z,25.33
2018-02-09T12:15:23.562Z,25.13
2018-02-09T12:17:51.004Z,26.30
2018-02-09T12:20:18.420Z,24.87
2018-02-09T12:22:46.636Z,25.77
2018-02-09T12:25:14.095Z,25.33
2018-02-09T12:27:42.370Z,27.10
2018-02-09T12:30:09.794Z,25.53
2018-02-09T12:32:38.046Z,26.73
2018-02-09T12:35:05.513Z,25.77
2018-02-09T12:37:32.954Z,25.50
2018-02-09T12:40:00.389Z,26.60
2018-02-09T12:42:27.815Z,26.63
2018-02-09T12:44:55.252Z,25.70
2018-02-09T12:47:23.448Z,26.53
2018-02-09T12:49:50.872Z,25.13
2018-02-09T12:52:19.135Z,26.27
2018-02-09T12:54:46.575Z,26.63
2018-02-09T12:57:14.024Z,26.00
2018-02-09T12:59:41.502Z,26.53
2018-02-09T13:02:08.925Z,26.57
2018-02-09T13:04:36.359Z,26.23
2018-02-09T13:07:03.796Z,26.03
2018-02-09T13:09:32.014Z,25.50
2018-02-09T13:11:59.497Z,25.50
2018-02-09T13:14:38.836Z,26.07
2018-02-09T13:17:06.386Z,26.17
2018-02-09T13:19:33.842Z,26.37
2018-02-09T13:22:01.289Z,26.30
2018-02-09T13:24:28.731Z,25.93
2018-02-09T13:26:56.160Z,26.27
2018-02-09T13:29:24.381Z,24.23
2018-02-09T13:31:51.812Z,25.50
2018-02-09T13:34:19.283Z,26.00
2018-02-09T13:39:55.928Z,24.73
2018-02-09T13:42:24.152Z,24.50
2018-02-09T13:44:51.584Z,24.07
2018-02-09T13:47:19.013Z,26.43
2018-02-09T13:49:47.240Z,25.07
2018-02-09T13:52:14.709Z,23.93
2018-02-09T13:54:42.139Z,24.50
2018-02-09T13:57:09.582Z,25.07
2018-02-09T13:59:37.120Z,26.57
2018-02-09T14:02:05.317Z,23.60
2018-02-09T14:04:32.807Z,25.07
2018-02-09T14:07:00.232Z,25.50
2018-02-09T14:09:27.668Z,24.23
2018-02-09T14:11:55.891Z,25.33
2018-02-09T14:14:23.320Z,24.13
2018-02-09T14:16:50.752Z,22.80
2018-02-09T14:19:18.984Z,25.23
2018-02-09T14:21:46.413Z,26.27
2018-02-09T14:24:13.886Z,23.10
2018-02-09T14:26:41.316Z,24.40
2018-02-09T14:29:08.752Z,25.77
2018-02-09T14:31:36.196Z,23.27
2018-02-09T14:34:03.636Z,24.27
2018-02-09T14:36:31.180Z,24.30
2018-02-09T14:38:58.620Z,23.90
2018-02-09T14:41:26.073Z,24.93
2018-02-09T14:43:53.566Z,23.37
2018-02-09T14:46:20.995Z,23.83
2018-02-09T14:48:48.458Z,23.60
2018-02-09T14:51:15.864Z,23.33
2018-02-09T14:53:43.294Z,23.10
2018-02-09T14:56:10.744Z,22.10
2018-02-09T14:58:38.194Z,23.20
2018-02-09T15:01:05.639Z,24.50
2018-02-09T15:03:33.070Z,22.43
2018-02-09T15:06:01.281Z,24.43
2018-02-09T15:08:28.708Z,23.23
2018-02-09T15:10:56.194Z,22.77
2018-02-09T15:13:23.656Z,23.03
2018-02-09T15:15:51.092Z,23.17
2018-02-09T15:18:18.564Z,24.03
2018-02-09T15:20:45.998Z,23.53
2018-02-09T15:23:13.436Z,23.37
2018-02-09T15:25:41.747Z,22.57
2018-02-09T15:28:09.240Z,22.77
2018-02-09T15:30:36.787Z,21.40
2018-02-09T15:33:04.220Z,21.47
2018-02-09T15:35:31.688Z,22.00
2018-02-09T15:37:59.140Z,21.50
2018-02-09T15:40:26.590Z,21.90
2018-02-09T15:42:54.016Z,23.17
2018-02-09T15:45:22.210Z,22.50
2018-02-09T15:47:49.657Z,22.30
2018-02-09T15:50:17.083Z,23.23
2018-02-09T15:52:44.512Z,22.07
2018-02-09T15:55:11.948Z,21.93
2018-02-09T15:57:39.392Z,21.93
2018-02-09T16:00:06.824Z,21.83
2018-02-09T16:02:35.040Z,18.90
2018-02-09T16:05:02.500Z,20.17
2018-02-09T16:07:29.967Z,19.13
2018-02-09T16:09:57.410Z,19.23
2018-02-09T16:12:24.845Z,19.27
2018-02-09T16:14:52.337Z,19.77
2018-02-09T16:17:19.885Z,17.43
2018-02-09T16:19:47.441Z,18.80
2018-02-09T16:22:14.888Z,18.67
2018-02-09T16:24:42.378Z,20.13
2018-02-09T16:27:09.800Z,19.20
2018-02-09T16:29:37.228Z,18.73
2018-02-09T16:32:05.452Z,19.67
2018-02-09T16:34:32.907Z,19.40
2018-02-09T16:37:00.436Z,18.97
2018-02-09T16:39:28.056Z,17.20
2018-02-09T16:41:55.487Z,18.47
2018-02-09T16:44:22.926Z,18.67
2018-02-09T16:46:50.397Z,19.27
2018-02-09T16:49:17.859Z,19.47
2018-02-09T16:51:45.326Z,18.57
2018-02-09T16:54:12.781Z,19.80
2018-02-09T16:56:40.210Z,18.83
2018-02-09T16:59:07.652Z,17.87
2018-02-09T17:01:35.861Z,18.30
2018-02-09T17:04:03.319Z,18.90
2018-02-09T17:06:30.733Z,19.90
2018-02-09T17:08:58.947Z,20.00
2018-02-09T17:11:26.375Z,21.30
2018-02-09T17:13:53.860Z,20.13
2018-02-09T17:16:21.311Z,20.20
2018-02-09T17:18:48.732Z,20.63
2018-02-09T17:21:16.952Z,20.60
2018-02-09T17:23:44.400Z,18.73
2018-02-09T17:26:11.868Z,19.20
2018-02-09T17:28:39.324Z,20.87
2018-02-09T17:31:06.780Z,19.77
2018-02-09T17:33:34.240Z,19.13
2018-02-09T17:36:01.702Z,20.73
2018-02-09T17:38:29.141Z,18.50
2018-02-09T17:40:56.589Z,19.57
2018-02-09T17:43:24.021Z,18.10
2018-02-09T17:45:52.266Z,19.43
2018-02-09T17:48:19.695Z,18.30
2018-02-09T17:50:47.121Z,18.60
2018-02-09T17:53:14.632Z,18.57
2018-02-09T17:55:42.058Z,19.80
2018-02-09T17:58:09.511Z,19.97
2018-02-09T18:00:36.953Z,19.93
2018-02-09T18:03:04.400Z,18.83
2018-02-09T18:05:32.611Z,20.03
2018-02-09T18:08:00.096Z,18.03
2018-02-09T18:10:27.625Z,19.23
2018-02-09T18:12:55.098Z,18.60
2018-02-09T18:15:22.535Z,20.73
2018-02-09T18:17:50.016Z,18.33
2018-02-09T18:20:17.464Z,18.03
2018-02-09T18:22:44.923Z,20.13
2018-02-09T18:25:12.354Z,23.33
2018-02-09T18:27:39.824Z,18.53
2018-02-09T18:30:07.264Z,19.93
2018-02-09T18:32:34.704Z,20.23
2018-02-09T18:35:02.900Z,19.50
2018-02-09T18:37:30.344Z,19.10
2018-02-09T18:39:57.832Z,19.60
2018-02-09T18:42:25.268Z,19.10
2018-02-09T18:44:52.749Z,19.13
2018-02-09T18:47:20.180Z,18.43
2018-02-09T18:49:47.609Z,22.87
2018-02-09T18:52:15.076Z,18.87
2018-02-09T18:54:43.276Z,21.53
2018-02-09T18:57:10.704Z,21.07
2018-02-09T18:59:38.914Z,21.37
2018-02-09T19:02:06.340Z,21.00
2018-02-09T19:04:34.563Z,22.00
2018-02-09T19:07:02.004Z,21.97
2018-02-09T19:09:29.432Z,22.63
2018-02-09T19:11:57.639Z,21.60
2018-02-09T19:14:25.100Z,22.33
2018-02-09T19:16:52.533Z,22.47
2018-02-09T19:19:20.035Z,22.63
2018-02-09T19:21:47.480Z,21.67
2018-02-09T19:24:14.944Z,23.47
2018-02-09T19:26:42.390Z,23.07
2018-02-09T19:29:09.838Z,24.40
2018-02-09T19:31:37.260Z,23.50
2018-02-09T19:34:05.456Z,24.47
2018-02-09T19:36:32.897Z,24.60
2018-02-09T19:39:00.531Z,25.27
2018-02-09T19:41:28.723Z,25.30
2018-02-09T19:43:56.936Z,26.40
2018-02-09T19:46:24.354Z,26.80
2018-02-09T19:48:52.572Z,26.10
2018-02-09T19:51:20.076Z,25.80
2018-02-09T19:53:47.594Z,26.27
2018-02-09T19:56:15.106Z,26.50
2018-02-09T19:58:43.308Z,27.20
2018-02-09T20:01:10.739Z,26.33
2018-02-09T20:03:38.951Z,27.93
2018-02-09T20:06:06.403Z,29.07
2018-02-09T20:08:33.849Z,28.00
2018-02-09T20:11:01.329Z,28.50
2018-02-09T20:13:28.780Z,28.80
2018-02-09T20:15:56.216Z,26.23
2018-02-09T20:18:23.699Z,27.43
2018-02-09T20:20:51.156Z,29.23
2018-02-09T20:23:18.586Z,27.83
2018-02-09T20:25:46.012Z,28.33
2018-02-09T20:28:13.452Z,30.10
2018-02-09T20:30:40.984Z,29.00
2018-02-09T20:33:08.412Z,28.40
2018-02-09T20:35:35.896Z,29.10
2018-02-09T20:38:03.334Z,28.83
2018-02-09T20:40:30.812Z,29.70
2018-02-09T20:42:58.271Z,28.67
2018-02-09T20:45:25.724Z,27.30
2018-02-09T20:47:53.178Z,29.37
2018-02-09T20:50:20.652Z,28.47
2018-02-09T20:52:48.087Z,28.63
2018-02-09T20:55:15.508Z,30.23
2018-02-09T20:57:43.722Z,28.47
2018-02-09T21:00:11.213Z,30.70
2018-02-09T21:02:38.592Z,28.57
2018-02-09T21:05:06.816Z,30.33
2018-02-09T21:07:34.278Z,30.43
2018-02-09T21:10:01.680Z,29.67
2018-02-09T21:12:29.906Z,32.77
2018-02-09T21:14:57.337Z,30.00
2018-02-09T21:17:24.760Z,32.43
2018-02-09T21:19:52.388Z,31.47
2018-02-09T21:22:19.823Z,33.77
2018-02-09T21:24:47.338Z,32.33
2018-02-09T21:27:14.775Z,32.20
2018-02-09T21:29:42.200Z,34.00
2018-02-09T21:32:09.674Z,34.17
2018-02-09T21:34:38.057Z,32.43
2018-02-09T21:37:05.492Z,34.50
2018-02-09T21:39:33.164Z,34.20
2018-02-09T21:42:01.647Z,33.03
2018-02-09T21:44:29.077Z,32.80
2018-02-09T21:46:56.514Z,34.33
2018-02-09T21:49:24.736Z,33.13
2018-02-09T21:51:52.165Z,32.43
2018-02-09T21:54:19.768Z,33.50
2018-02-09T21:56:47.237Z,33.27
2018-02-09T21:59:14.696Z,34.57
2018-02-09T22:01:42.224Z,33.10
2018-02-09T22:04:09.713Z,34.87
2018-02-09T22:06:37.248Z,33.20
2018-02-09T22:09:04.709Z,33.17
2018-02-09T22:11:32.157Z,33.43
2018-02-09T22:13:59.639Z,33.10
2018-02-09T22:16:27.224Z,33.63
2018-02-09T22:18:54.668Z,32.00
2018-02-09T22:21:22.100Z,32.77
2018-02-09T22:23:49.536Z,34.90
2018-02-09T22:26:17.000Z,33.87
2018-02-09T22:28:44.432Z,33.13
2018-02-09T22:31:11.859Z,33.83
2018-02-09T22:33:40.182Z,32.23
2018-02-09T22:36:07.645Z,34.60
2018-02-09T22:38:35.082Z,36.20
2018-02-09T22:41:02.525Z,36.20
2018-02-09T22:43:30.728Z,35.53
2018-02-09T22:45:58.238Z,35.03
2018-02-09T22:48:25.764Z,33.40
2018-02-09T22:50:53.227Z,35.13
2018-02-09T22:53:20.647Z,35.67
2018-02-09T22:55:48.088Z,34.77
2018-02-09T22:58:16.291Z,35.67
2018-02-09T23:00:43.716Z,33.40
2018-02-09T23:03:12.028Z,35.67
2018-02-09T23:05:39.488Z,36.23
2018-02-09T23:08:06.919Z,38.67
2018-02-09T23:10:34.409Z,36.70
2018-02-09T23:13:01.865Z,36.97
2018-02-09T23:15:29.325Z,38.90
2018-02-09T23:17:56.751Z,39.93
2018-02-09T23:20:24.184Z,41.50
2018-02-09T23:22:52.384Z,40.57
2018-02-09T23:25:19.845Z,43.77
2018-02-09T23:27:47.333Z,41.93
2018-02-09T23:30:19.907Z,43.17
2018-02-09T23:32:47.337Z,43.13
2018-02-09T23:35:14.872Z,46.00
2018-02-09T23:37:43.187Z,45.03
2018-02-09T23:40:10.639Z,48.40
2018-02-09T23:42:38.051Z,47.37
2018-02-09T23:45:06.271Z,44.30
2018-02-09T23:47:33.703Z,47.00
2018-02-09T23:50:01.141Z,50.43
2018-02-09T23:52:29.354Z,47.63
2018-02-09T23:54:56.823Z,48.50
2018-02-09T23:57:24.264Z,47.30
2018-02-09T23:59:51.744Z,47.33
